Time;durP1;ratioP1;P1;durP2;ratioP2;P2;SDS_P1;SDS_P2;PMS_P1;PMS_P2;Temp;Humidity;BMP_temperature;BMP_pressure;BME280_temperature;BME280_humidity;BME280_pressure;Samples;Min_cycle;Max_cycle;Signal;HPM_P1;HPM_P2
2022/03/04 00:00:11;;;;;;;;;;;;;;;0.65;78.85;98280.27;1670111;85;20209;-84
2022/03/04 00:02:41;;;;;;;;;;;;;;;0.52;78.89;98280.26;1661324;84;20177;-84
2022/03/04 00:05:07;;;;;;;;;;;;;;;0.45;78.94;98280.48;1633182;85;21977;-82
2022/03/04 00:07:33;;;;;;;;;;;;;;;0.40;79.03;98276.34;1668928;85;26091;-84
2022/03/04 00:09:59;;;;;;;;;;;;;;;0.38;79.15;98282.44;1670712;85;24532;-84
2022/03/04 00:12:25;;;;;;;;;;;;;;;0.32;79.26;98278.33;1673128;85;20404;-83
2022/03/04 00:14:57;;;;;;;;;;;;;;;0.33;79.37;98281.72;1663639;84;24736;-83
2022/03/04 00:17:23;;;;;;;;;;;;;;;0.32;79.51;98283.92;1656063;85;22072;-84
2022/03/04 00:19:49;;;;;;;;;;;;;;;0.24;79.52;98282.02;1645025;85;25979;-83
2022/03/04 00:22:15;;;;;;;;;;;;;;;0.30;79.69;98282.67;1655931;84;24495;-83
2022/03/04 00:24:41;;;;;;;;;;;;;;;0.33;79.85;98282.56;1654277;84;20250;-83
2022/03/04 00:27:07;;;;;;;;;;;;;;;0.30;79.94;98282.67;1646093;84;20368;-83
2022/03/04 00:29:34;;;;;;;;;;;;;;;0.34;80.08;98284.69;1646758;84;22782;-83
2022/03/04 00:32:00;;;;;;;;;;;;;;;0.37;80.25;98285.45;1650255;84;26166;-84
2022/03/04 00:34:28;;;;;;;;;;;;;;;0.39;80.42;98282.81;1632066;87;24529;-83
2022/03/04 00:36:54;;;;;;;;;;;;;;;0.38;80.51;98284.55;1637336;87;20298;-82
2022/03/04 00:39:21;;;;;;;;;;;;;;;0.44;80.68;98286.55;1636063;86;24759;-83
2022/03/04 00:41:49;;;;;;;;;;;;;;;0.49;80.87;98285.52;1629783;87;21570;-83
2022/03/04 00:44:15;;;;;;;;;;;;;;;0.53;81.04;98287.09;1630950;86;26053;-82
2022/03/04 00:46:41;;;;;;;;;;;;;;;0.52;81.10;98284.12;1660762;84;24436;-83
2022/03/04 00:49:07;;;;;;;;;;;;;;;0.49;81.12;98283.39;1675509;84;20227;-83
2022/03/04 00:51:33;;;;;;;;;;;;;;;0.49;81.16;98280.81;1661816;85;24776;-83
2022/03/04 00:54:00;;;;;;;;;;;;;;;0.47;81.19;98278.72;1650382;85;22238;-83
2022/03/04 00:56:26;;;;;;;;;;;;;;;0.46;81.20;98284.75;1652338;85;25998;-82
2022/03/04 00:58:52;;;;;;;;;;;;;;;0.48;81.25;98285.12;1673965;84;24444;-82
2022/03/04 01:01:19;;;;;;;;;;;;;;;0.48;81.30;98280.41;1678716;84;20218;-82
2022/03/04 01:03:47;;;;;;;;;;;;;;;0.47;81.36;98282.58;1664880;83;24994;-82
2022/03/04 01:06:13;;;;;;;;;;;;;;;0.47;81.38;98283.87;1663793;85;22019;-83
2022/03/04 01:08:39;;;;;;;;;;;;;;;0.49;81.43;98284.67;1661948;84;26010;-82
2022/03/04 01:11:05;;;;;;;;;;;;;;;0.51;81.54;98286.30;1686601;81;24452;-82
2022/03/04 01:13:32;;;;;;;;;;;;;;;0.53;81.63;98283.23;1662786;83;20214;-83
2022/03/04 01:15:59;;;;;;;;;;;;;;;0.45;81.61;98279.20;1638409;85;24819;-82
2022/03/04 01:18:27;;;;;;;;;;;;;;;0.45;81.65;98274.90;1655733;85;21959;-82
2022/03/04 01:20:54;;;;;;;;;;;;;;;0.45;81.66;98280.05;1648645;85;25667;-82
2022/03/04 01:23:20;;;;;;;;;;;;;;;0.45;81.72;98277.91;1649036;85;24581;-82
2022/03/04 01:25:46;;;;;;;;;;;;;;;0.48;81.83;98272.25;1653166;86;20333;-83
2022/03/04 01:28:12;;;;;;;;;;;;;;;0.54;81.96;98283.63;1651369;85;24790;-83
2022/03/04 01:30:38;;;;;;;;;;;;;;;0.51;82.02;98276.00;1647341;86;22084;-84
2022/03/04 01:33:04;;;;;;;;;;;;;;;0.51;82.04;98276.00;1645727;85;25798;-84
2022/03/04 01:35:30;;;;;;;;;;;;;;;0.53;82.12;98272.09;1629044;87;24412;-84
2022/03/04 01:37:57;;;;;;;;;;;;;;;0.50;82.14;98274.30;1630879;86;20221;-83
2022/03/04 01:40:25;;;;;;;;;;;;;;;0.46;82.14;98275.75;1635188;86;24965;-83
2022/03/04 01:42:51;;;;;;;;;;;;;;;0.50;82.25;98273.45;1635748;86;22069;-84
2022/03/04 01:45:17;;;;;;;;;;;;;;;0.53;82.37;98268.23;1648786;85;26030;-84
2022/03/04 01:47:43;;;;;;;;;;;;;;;0.48;82.39;98270.95;1636763;86;20338;-84
2022/03/04 01:50:10;;;;;;;;;;;;;;;0.50;82.46;98269.59;1633677;86;20495;-84
2022/03/04 01:52:36;;;;;;;;;;;;;;;0.49;82.51;98271.36;1633093;87;24820;-83
2022/03/04 01:55:03;;;;;;;;;;;;;;;0.53;82.63;98275.52;1639098;86;22026;-83
2022/03/04 01:57:29;;;;;;;;;;;;;;;0.52;82.68;98269.11;1618167;87;25984;-84
2022/03/04 01:59:55;;;;;;;;;;;;;;;0.46;82.67;98274.45;1638106;86;24412;-84
2022/03/04 02:02:27;;;;;;;;;;;;;;;0.41;82.66;98269.46;1639865;86;20292;-84
2022/03/04 02:04:53;;;;;;;;;;;;;;;0.40;82.71;98266.48;1637256;86;24765;-83
2022/03/04 02:07:19;;;;;;;;;;;;;;;0.44;82.83;98265.48;1636277;86;22040;-83
2022/03/04 02:09:45;;;;;;;;;;;;;;;0.43;82.88;98268.98;1633381;85;21117;-83
2022/03/04 02:12:14;;;;;;;;;;;;;;;0.39;82.91;98263.51;1628197;86;24465;-83
2022/03/04 02:14:40;;;;;;;;;;;;;;;0.30;82.86;98263.37;1627368;85;20261;-83
2022/03/04 02:17:06;;;;;;;;;;;;;;;0.22;82.80;98264.04;1657174;85;24773;-83
2022/03/04 02:19:38;;;;;;;;;;;;;;;0.20;82.83;98263.27;1669545;85;22085;-83
2022/03/04 02:22:04;;;;;;;;;;;;;;;0.23;82.92;98265.73;1654474;85;26027;-84
2022/03/04 02:24:31;;;;;;;;;;;;;;;0.25;83.03;98266.98;1659513;85;24419;-84
2022/03/04 02:27:03;;;;;;;;;;;;;;;0.28;83.15;98266.42;1657429;85;20619;-84
2022/03/04 02:29:31;;;;;;;;;;;;;;;0.21;83.15;98273.12;1660255;84;24777;-84
2022/03/04 02:31:57;;;;;;;;;;;;;;;0.11;83.12;98267.39;1669958;84;21782;-84
2022/03/04 02:34:23;;;;;;;;;;;;;;;0.07;83.13;98269.66;1665201;85;25971;-83
2022/03/04 02:36:50;;;;;;;;;;;;;;;0.02;83.16;98270.25;1656701;84;25265;-83
2022/03/04 02:39:16;;;;;;;;;;;;;;;-0.07;83.11;98270.54;1649256;85;21243;-83
2022/03/04 02:41:42;;;;;;;;;;;;;;;-0.06;83.19;98268.38;1661213;85;24795;-83
2022/03/04 02:44:10;;;;;;;;;;;;;;;-0.06;83.30;98269.22;1644989;86;21965;-83
2022/03/04 02:46:42;;;;;;;;;;;;;;;-0.06;83.43;98267.93;1650200;85;25578;-83
2022/03/04 02:49:09;;;;;;;;;;;;;;;-0.09;83.49;98282.16;1655417;85;24610;-83
2022/03/04 02:51:36;;;;;;;;;;;;;;;-0.15;83.53;98278.91;1661485;85;20211;-83
2022/03/04 02:54:02;;;;;;;;;;;;;;;-0.21;83.55;98275.23;1660460;85;24800;-83
2022/03/04 02:56:28;;;;;;;;;;;;;;;-0.14;83.71;98267.74;1661032;85;22107;-83
2022/03/04 02:58:54;;;;;;;;;;;;;;;0.01;84.03;98247.98;1664265;85;26045;-83
2022/03/04 03:01:22;;;;;;;;;;;;;;;0.15;84.33;98239.41;1663599;85;24405;-82
2022/03/04 03:03:49;;;;;;;;;;;;;;;0.21;84.58;98245.66;1652850;85;20258;-82
2022/03/04 03:06:15;;;;;;;;;;;;;;;0.18;84.68;98246.17;1649967;85;24738;-82
2022/03/04 03:08:41;;;;;;;;;;;;;;;0.22;84.88;98255.51;1659179;84;22046;-82
2022/03/04 03:11:07;;;;;;;;;;;;;;;0.19;84.96;98264.59;1658604;84;21134;-82
2022/03/04 03:13:33;;;;;;;;;;;;;;;0.13;84.96;98273.78;1658969;85;20256;-82
2022/03/04 03:16:02;;;;;;;;;;;;;;;0.17;85.07;98279.22;1659046;86;20313;-82
2022/03/04 03:18:28;;;;;;;;;;;;;;;0.16;85.17;98284.84;1669342;85;24838;-82
2022/03/04 03:21:00;;;;;;;;;;;;;;;0.23;85.34;98283.73;1678788;85;22155;-82
2022/03/04 03:23:26;;;;;;;;;;;;;;;0.31;85.56;98286.94;1672198;85;26024;-83
2022/03/04 03:25:54;;;;;;;;;;;;;;;0.44;85.80;98292.99;1664144;85;24438;-83
2022/03/04 03:28:20;;;;;;;;;;;;;;;0.56;86.03;98292.58;1667533;85;20319;-84
2022/03/04 03:30:46;;;;;;;;;;;;;;;0.67;86.28;98291.78;1662764;85;24715;-85
2022/03/04 03:33:13;;;;;;;;;;;;;;;0.73;86.44;98291.14;1663960;85;21960;-84
2022/03/04 03:35:39;;;;;;;;;;;;;;;0.77;86.58;98289.30;1667562;85;25952;-84
2022/03/04 03:38:05;;;;;;;;;;;;;;;0.83;86.69;98290.39;1661818;85;24408;-84
2022/03/04 03:40:40;;;;;;;;;;;;;;;0.92;86.84;98291.83;1666149;85;20192;-84
2022/03/04 03:43:06;;;;;;;;;;;;;;;0.96;86.94;98294.69;1663680;85;24803;-84
2022/03/04 03:45:32;;;;;;;;;;;;;;;0.95;86.94;98296.87;1670607;85;22640;-84
2022/03/04 03:47:59;;;;;;;;;;;;;;;0.97;86.97;98299.80;1660410;85;21072;-84
2022/03/04 03:50:25;;;;;;;;;;;;;;;1.02;87.03;98292.76;1667581;85;24536;-82
2022/03/04 03:52:51;;;;;;;;;;;;;;;1.09;87.06;98296.78;1667775;85;20306;-82
2022/03/04 03:55:17;;;;;;;;;;;;;;;1.12;87.12;98285.10;1669303;85;24724;-82
2022/03/04 03:57:44;;;;;;;;;;;;;;;1.24;87.23;98287.27;1663430;85;20365;-82
2022/03/04 04:00:10;;;;;;;;;;;;;;;1.25;87.22;98286.81;1672036;85;26056;-82
2022/03/04 04:02:39;;;;;;;;;;;;;;;1.22;87.13;98290.77;1670360;85;24442;-82
2022/03/04 04:05:06;;;;;;;;;;;;;;;1.19;87.11;98299.47;1663335;85;20272;-82
2022/03/04 04:07:32;;;;;;;;;;;;;;;1.16;87.06;98304.71;1664136;85;24863;-83
2022/03/04 04:09:58;;;;;;;;;;;;;;;1.15;87.01;98304.31;1689409;82;21818;-83
2022/03/04 04:12:24;;;;;;;;;;;;;;;1.17;86.99;98308.13;1661676;85;26184;-82
2022/03/04 04:14:50;;;;;;;;;;;;;;;1.18;86.95;98308.53;1663422;84;24425;-84
2022/03/04 04:17:21;;;;;;;;;;;;;;;1.14;86.88;98310.38;1665377;85;20326;-83
2022/03/04 04:19:50;;;;;;;;;;;;;;;1.15;86.90;98313.33;1657713;85;25494;-84
2022/03/04 04:22:17;;;;;;;;;;;;;;;1.09;86.79;98314.83;1659679;85;22130;-84
2022/03/04 04:24:43;;;;;;;;;;;;;;;1.09;86.73;98312.72;1655447;85;25988;-84
2022/03/04 04:27:09;;;;;;;;;;;;;;;1.05;86.66;98317.56;1660074;85;24447;-83
2022/03/04 04:29:35;;;;;;;;;;;;;;;0.93;86.49;98321.38;1665343;85;20257;-83
2022/03/04 04:32:01;;;;;;;;;;;;;;;0.82;86.28;98327.33;1665505;85;24816;-83
2022/03/04 04:34:27;;;;;;;;;;;;;;;0.83;86.28;98320.01;1667999;85;22069;-82
2022/03/04 04:36:53;;;;;;;;;;;;;;;0.75;86.17;98329.73;1645184;85;26114;-83
2022/03/04 04:39:19;;;;;;;;;;;;;;;0.60;85.91;98322.03;1662643;85;20854;-83
2022/03/04 04:41:45;;;;;;;;;;;;;;;0.67;85.96;98322.24;1659325;85;20528;-83
2022/03/04 04:44:11;;;;;;;;;;;;;;;0.65;85.97;98323.20;1655032;84;24740;-83
2022/03/04 04:46:40;;;;;;;;;;;;;;;0.66;86.03;98320.55;1663656;85;21797;-83
2022/03/04 04:49:06;;;;;;;;;;;;;;;0.72;86.19;98325.51;1629375;86;26093;-83
2022/03/04 04:51:32;;;;;;;;;;;;;;;0.69;86.18;98319.63;1642875;86;24446;-83
2022/03/04 04:53:58;;;;;;;;;;;;;;;0.72;86.29;98319.52;1661506;85;20516;-83
2022/03/04 04:56:24;;;;;;;;;;;;;;;0.68;86.29;98320.52;1659149;85;24752;-84
2022/03/04 04:58:51;;;;;;;;;;;;;;;0.63;86.26;98315.52;1658390;84;21984;-84
2022/03/04 05:01:17;;;;;;;;;;;;;;;0.66;86.32;98316.69;1671656;83;25914;-84
2022/03/04 05:03:44;;;;;;;;;;;;;;;0.79;86.51;98317.98;1654670;84;24459;-84
2022/03/04 05:06:10;;;;;;;;;;;;;;;0.89;86.67;98314.66;1653127;84;20210;-83
2022/03/04 05:08:36;;;;;;;;;;;;;;;0.91;86.76;98321.91;1655252;85;20277;-83
2022/03/04 05:11:02;;;;;;;;;;;;;;;0.88;86.77;98321.98;1675138;84;22029;-83
2022/03/04 05:13:29;;;;;;;;;;;;;;;0.86;86.77;98327.66;1670785;84;25982;-83
2022/03/04 05:15:55;;;;;;;;;;;;;;;0.80;86.72;98328.70;1672471;84;24526;-82
2022/03/04 05:18:24;;;;;;;;;;;;;;;0.79;86.70;98333.44;1649597;85;20255;-82
2022/03/04 05:20:50;;;;;;;;;;;;;;;0.80;86.74;98331.71;1650021;85;24792;-82
2022/03/04 05:23:58;;;;;;;;;;;;;;;0.88;86.86;98325.00;1670466;83;20848;-83
2022/03/04 05:25:46;;;;;;;;;;;;;;;0.94;86.99;98324.36;1643196;85;26016;-83
2022/03/04 05:28:12;;;;;;;;;;;;;;;1.01;87.11;98328.88;1649002;85;24443;-83
2022/03/04 05:30:38;;;;;;;;;;;;;;;1.18;87.39;98325.28;1645559;85;20263;-84
2022/03/04 05:33:04;;;;;;;;;;;;;;;1.24;87.56;98326.38;1651247;85;24832;-84
2022/03/04 05:35:30;;;;;;;;;;;;;;;1.20;87.51;98324.80;1625962;87;21982;-86
2022/03/04 05:37:56;;;;;;;;;;;;;;;1.19;87.51;98331.69;1639617;85;26261;-84
2022/03/04 05:40:22;;;;;;;;;;;;;;;1.13;87.41;98334.91;1650075;85;24531;-85
2022/03/04 05:42:48;;;;;;;;;;;;;;;1.14;87.40;98335.31;1652830;86;20252;-84
2022/03/04 05:45:14;;;;;;;;;;;;;;;1.20;87.45;98333.82;1645217;86;24839;-84
2022/03/04 05:47:40;;;;;;;;;;;;;;;1.25;87.56;98346.91;1644973;86;22047;-84
2022/03/04 05:50:07;;;;;;;;;;;;;;;1.28;87.61;98339.53;1636265;87;26091;-84
2022/03/04 05:52:33;;;;;;;;;;;;;;;1.32;87.67;98344.98;1651823;85;24415;-84
2022/03/04 05:55:00;;;;;;;;;;;;;;;1.34;87.68;98343.64;1655736;86;20230;-84
2022/03/04 05:57:32;;;;;;;;;;;;;;;1.36;87.71;98339.28;1650709;85;24814;-84
2022/03/04 05:59:59;;;;;;;;;;;;;;;1.40;87.70;98351.17;1649558;85;21958;-84
2022/03/04 06:02:28;;;;;;;;;;;;;;;1.37;87.65;98354.68;1648112;86;26071;-84
2022/03/04 06:05:00;;;;;;;;;;;;;;;1.41;87.67;98352.41;1655126;85;24479;-84
2022/03/04 06:07:28;;;;;;;;;;;;;;;1.46;87.71;98356.96;1653414;85;20340;-84
2022/03/04 06:09:54;;;;;;;;;;;;;;;1.46;87.65;98357.41;1644430;85;25040;-84
2022/03/04 06:12:20;;;;;;;;;;;;;;;1.50;87.67;98358.98;1651646;85;20889;-84
2022/03/04 06:14:46;;;;;;;;;;;;;;;1.52;87.65;98361.06;1657193;85;26038;-84
2022/03/04 06:17:12;;;;;;;;;;;;;;;1.49;87.59;98368.89;1652141;84;24736;-84
2022/03/04 06:19:39;;;;;;;;;;;;;;;1.41;87.47;98364.02;1647007;85;20369;-83
2022/03/04 06:22:05;;;;;;;;;;;;;;;1.41;87.44;98369.62;1654433;85;24928;-83
2022/03/04 06:24:32;;;;;;;;;;;;;;;1.45;87.43;98377.19;1628202;86;20345;-84
2022/03/04 06:26:58;;;;;;;;;;;;;;;1.41;87.36;98377.35;1647547;85;25949;-83
2022/03/04 06:29:24;;;;;;;;;;;;;;;1.33;87.26;98381.91;1644562;86;24514;-84
2022/03/04 06:31:51;;;;;;;;;;;;;;;1.27;87.15;98376.52;1643574;86;20245;-83
2022/03/04 06:34:17;;;;;;;;;;;;;;;1.16;87.00;98383.76;1653043;85;24757;-82
2022/03/04 06:36:43;;;;;;;;;;;;;;;1.02;86.78;98388.53;1645497;86;22058;-82
2022/03/04 06:39:10;;;;;;;;;;;;;;;0.93;86.65;98390.94;1646393;86;26079;-84
2022/03/04 06:41:37;;;;;;;;;;;;;;;0.80;86.50;98390.95;1646750;86;25310;-84
2022/03/04 06:44:03;;;;;;;;;;;;;;;0.73;86.41;98395.89;1646323;85;20237;-84
2022/03/04 06:46:31;;;;;;;;;;;;;;;0.74;86.44;98393.72;1650746;85;24983;-84
2022/03/04 06:48:58;;;;;;;;;;;;;;;0.68;86.48;98399.05;1640105;86;22029;-83
2022/03/04 06:51:24;;;;;;;;;;;;;;;0.63;86.53;98390.19;1651036;85;21139;-83
2022/03/04 06:53:53;;;;;;;;;;;;;;;0.62;86.63;98396.66;1645445;85;25278;-83
2022/03/04 06:56:19;;;;;;;;;;;;;;;0.58;86.72;98397.21;1643907;85;20247;-84
2022/03/04 06:58:45;;;;;;;;;;;;;;;0.69;86.95;98391.29;1647214;85;20431;-83
2022/03/04 07:01:11;;;;;;;;;;;;;;;0.76;87.21;98391.95;1676670;84;22422;-83
2022/03/04 07:03:38;;;;;;;;;;;;;;;0.88;87.49;98397.98;1648330;85;26046;-83
2022/03/04 07:06:05;;;;;;;;;;;;;;;0.94;87.76;98397.78;1640134;86;24489;-84
2022/03/04 07:08:34;;;;;;;;;;;;;;;0.97;87.94;98402.02;1650288;86;20570;-83
2022/03/04 07:10:59;;;;;;;;;;;;;;;0.99;88.12;98395.91;1644170;84;25433;-83
2022/03/04 07:13:25;;;;;;;;;;;;;;;1.03;88.25;98403.95;1648580;85;20511;-81
2022/03/04 07:15:52;;;;;;;;;;;;;;;1.02;88.32;98408.70;1645400;84;25990;-82
2022/03/04 07:18:18;;;;;;;;;;;;;;;1.00;88.36;98399.32;1654589;86;24798;-82
2022/03/04 07:20:44;;;;;;;;;;;;;;;0.93;88.35;98401.25;1659745;84;20253;-82
2022/03/04 07:23:10;;;;;;;;;;;;;;;0.88;88.37;98403.13;1657829;86;20791;-82
2022/03/04 07:25:36;;;;;;;;;;;;;;;0.91;88.48;98403.05;1662681;85;22111;-83
2022/03/04 07:28:02;;;;;;;;;;;;;;;0.90;88.56;98406.95;1658121;85;26025;-84
2022/03/04 07:30:28;;;;;;;;;;;;;;;0.91;88.69;98404.78;1658027;84;24704;-83
2022/03/04 07:32:54;;;;;;;;;;;;;;;0.92;88.82;98407.31;1654807;84;20352;-83
2022/03/04 07:35:20;;;;;;;;;;;;;;;0.93;88.97;98409.45;1683702;83;24597;-83
2022/03/04 07:37:46;;;;;;;;;;;;;;;0.92;89.12;98403.89;1658783;86;22032;-83
2022/03/04 07:40:14;;;;;;;;;;;;;;;0.92;89.28;98405.19;1658773;84;26040;-82
2022/03/04 07:42:41;;;;;;;;;;;;;;;0.93;89.42;98397.38;1657971;84;24382;-82
2022/03/04 07:45:08;;;;;;;;;;;;;;;0.94;89.63;98402.94;1663993;85;20492;-82
2022/03/04 07:47:36;;;;;;;;;;;;;;;0.97;89.78;98405.44;1656068;85;25575;-81
2022/03/04 07:50:05;;;;;;;;;;;;;;;1.02;90.00;98406.57;1658521;86;22007;-82
2022/03/04 07:52:32;;;;;;;;;;;;;;;1.02;90.19;98415.14;1657535;84;26188;-81
2022/03/04 07:55:00;;;;;;;;;;;;;;;1.09;90.43;98420.48;1657843;86;24546;-81
2022/03/04 07:57:26;;;;;;;;;;;;;;;1.09;90.63;98416.61;1647605;85;20512;-81
2022/03/04 07:59:52;;;;;;;;;;;;;;;1.13;90.81;98422.09;1682334;83;24796;-81
2022/03/04 08:02:18;;;;;;;;;;;;;;;1.18;90.99;98428.38;1657917;84;21986;-82
2022/03/04 08:04:45;;;;;;;;;;;;;;;1.23;91.20;98419.60;1656349;84;25998;-81
2022/03/04 08:07:11;;;;;;;;;;;;;;;1.25;91.35;98427.30;1658139;84;24400;-80
2022/03/04 08:09:37;;;;;;;;;;;;;;;1.23;91.46;98424.76;1658633;84;20162;-81
2022/03/04 08:12:04;;;;;;;;;;;;;;;1.26;91.58;98431.09;1660048;86;20807;-81
2022/03/04 08:14:30;;;;;;;;;;;;;;;1.28;91.71;98431.48;1653646;84;22055;-83
2022/03/04 08:16:56;;;;;;;;;;;;;;;1.27;91.84;98425.48;1655618;84;26056;-82
2022/03/04 08:19:22;;;;;;;;;;;;;;;1.29;91.96;98429.31;1658694;84;24461;-82
2022/03/04 08:21:56;;;;;;;;;;;;;;;1.27;92.04;98429.35;1654984;84;20238;-81
2022/03/04 08:24:22;;;;;;;;;;;;;;;1.26;92.12;98427.22;1639254;85;25111;-82
2022/03/04 08:26:48;;;;;;;;;;;;;;;1.27;92.20;98433.22;1656923;84;22012;-81
2022/03/04 08:29:14;;;;;;;;;;;;;;;1.25;92.28;98435.84;1663547;84;26003;-81
2022/03/04 08:31:40;;;;;;;;;;;;;;;1.30;92.43;98437.45;1655920;86;24414;-81
2022/03/04 08:34:06;;;;;;;;;;;;;;;1.32;92.57;98438.22;1652683;84;20468;-82
2022/03/04 08:36:32;;;;;;;;;;;;;;;1.29;92.63;98437.05;1656831;84;24802;-82
2022/03/04 08:39:03;;;;;;;;;;;;;;;1.25;92.71;98435.84;1655960;85;22029;-82
2022/03/04 08:41:30;;;;;;;;;;;;;;;1.16;92.72;98423.70;1664183;86;25977;-82
2022/03/04 08:43:56;;;;;;;;;;;;;;;1.26;92.83;98431.09;1658181;84;24548;-82
2022/03/04 08:46:22;;;;;;;;;;;;;;;1.33;93.00;98430.89;1654658;84;20582;-82
2022/03/04 08:48:48;;;;;;;;;;;;;;;1.30;93.07;98429.72;1660932;84;24825;-81
2022/03/04 08:51:14;;;;;;;;;;;;;;;1.32;93.17;98429.20;1660284;85;21935;-81
2022/03/04 08:53:40;;;;;;;;;;;;;;;1.35;93.30;98423.95;1660044;84;21085;-81
2022/03/04 08:56:07;;;;;;;;;;;;;;;1.38;93.45;98433.71;1652327;85;24498;-82
2022/03/04 08:58:33;;;;;;;;;;;;;;;1.38;93.53;98429.84;1659461;84;20547;-82
2022/03/04 09:00:59;;;;;;;;;;;;;;;1.38;93.62;98435.00;1655205;84;24743;-82
2022/03/04 09:03:25;;;;;;;;;;;;;;;1.41;93.76;98437.50;1677676;84;21959;-82
2022/03/04 09:05:53;;;;;;;;;;;;;;;1.44;93.88;98440.41;1658680;84;25985;-82
2022/03/04 09:08:19;;;;;;;;;;;;;;;1.42;93.98;98436.58;1657319;85;24626;-82
2022/03/04 09:10:48;;;;;;;;;;;;;;;1.48;94.11;98446.69;1659094;85;20388;-81
2022/03/04 09:13:14;;;;;;;;;;;;;;;1.49;94.26;98438.52;1655165;86;24822;-82
2022/03/04 09:15:41;;;;;;;;;;;;;;;1.51;94.37;98449.19;1647514;84;22038;-81
2022/03/04 09:18:08;;;;;;;;;;;;;;;1.57;94.57;98449.42;1644390;84;26229;-81
2022/03/04 09:20:34;;;;;;;;;;;;;;;1.61;94.77;98443.27;1645450;85;24505;-82
2022/03/04 09:23:00;;;;;;;;;;;;;;;1.61;94.90;98447.98;1644788;85;20260;-81
2022/03/04 09:25:27;;;;;;;;;;;;;;;1.67;95.08;98454.67;1647604;85;20368;-82
2022/03/04 09:27:53;;;;;;;;;;;;;;;1.66;95.15;98449.11;1648857;86;22069;-82
2022/03/04 09:30:19;;;;;;;;;;;;;;;1.65;95.19;98452.58;1650896;86;25922;-81
2022/03/04 09:32:45;;;;;;;;;;;;;;;1.69;95.32;98456.28;1652135;85;24415;-81
2022/03/04 09:35:11;;;;;;;;;;;;;;;1.75;95.50;98457.81;1649111;85;20226;-81
2022/03/04 09:37:37;;;;;;;;;;;;;;;1.77;95.60;98457.33;1641054;86;24776;-83
2022/03/04 09:40:10;;;;;;;;;;;;;;;1.75;95.64;98463.41;1650432;85;21876;-82
2022/03/04 09:42:37;;;;;;;;;;;;;;;1.63;95.54;98466.84;1646508;85;26006;-82
2022/03/04 09:45:03;;;;;;;;;;;;;;;1.64;95.53;98467.20;1645047;85;24521;-81
2022/03/04 09:47:30;;;;;;;;;;;;;;;1.69;95.59;98472.23;1642574;86;20509;-80
2022/03/04 09:49:58;;;;;;;;;;;;;;;1.64;95.59;98474.09;1641786;85;24873;-82
2022/03/04 09:52:25;;;;;;;;;;;;;;;1.53;95.52;98468.01;1668032;84;22368;-81
2022/03/04 09:54:52;;;;;;;;;;;;;;;1.38;95.33;98468.96;1646780;86;26900;-81
2022/03/04 09:57:24;;;;;;;;;;;;;;;1.36;95.32;98474.63;1654480;85;24497;-81
2022/03/04 09:59:51;;;;;;;;;;;;;;;1.39;95.41;98465.50;1644703;85;20209;-81
2022/03/04 10:02:17;;;;;;;;;;;;;;;1.47;95.63;98461.80;1645700;85;24778;-80
2022/03/04 10:04:43;;;;;;;;;;;;;;;1.55;95.87;98457.66;1648700;86;22124;-81
2022/03/04 10:07:12;;;;;;;;;;;;;;;1.65;96.13;98460.31;1646117;86;26049;-80
2022/03/04 10:09:44;;;;;;;;;;;;;;;1.81;96.48;98452.45;1644726;86;24551;-81
2022/03/04 10:12:12;;;;;;;;;;;;;;;1.90;96.77;98461.18;1644964;86;20241;-81
2022/03/04 10:14:58;;;;;;;;;;;;;;;1.99;96.99;98463.43;1645960;85;24758;-81
2022/03/04 10:17:25;;;;;;;;;;;;;;;2.09;97.22;98466.52;1652260;84;22101;-81
2022/03/04 10:19:54;;;;;;;;;;;;;;;2.03;97.27;98465.00;1657143;86;26256;-81
2022/03/04 10:22:20;;;;;;;;;;;;;;;2.08;97.34;98468.26;1656187;85;24493;-81
2022/03/04 10:24:47;;;;;;;;;;;;;;;2.15;97.46;98461.59;1658577;84;20206;-80
2022/03/04 10:27:14;;;;;;;;;;;;;;;2.21;97.57;98462.22;1653935;85;24923;-81
2022/03/04 10:29:42;;;;;;;;;;;;;;;2.22;97.62;98465.20;1652913;86;21968;-82
2022/03/04 10:32:19;;;;;;;;;;;;;;;2.16;97.53;98465.86;1654540;86;26836;-82
2022/03/04 10:34:56;;;;;;;;;;;;;;;2.00;97.30;98471.57;1654577;84;24464;-82
2022/03/04 10:37:26;;;;;;;;;;;;;;;1.90;97.13;98466.34;1661423;84;20456;-82
2022/03/04 10:40:00;;;;;;;;;;;;;;;1.87;97.01;98472.03;1663555;84;24824;-82
2022/03/04 10:42:46;;;;;;;;;;;;;;;1.84;96.98;98469.13;1656161;86;22052;-82
2022/03/04 10:45:26;;;;;;;;;;;;;;;1.80;96.95;98462.36;1644767;86;26155;-81
2022/03/04 10:48:00;;;;;;;;;;;;;;;1.82;97.03;98465.75;1650515;84;24679;-80
2022/03/04 10:50:37;;;;;;;;;;;;;;;1.83;97.09;98468.73;1651347;84;20301;-80
2022/03/04 10:53:07;;;;;;;;;;;;;;;1.84;97.17;98461.39;1649147;84;24816;-80
2022/03/04 10:55:35;;;;;;;;;;;;;;;1.90;97.29;98465.50;1665331;86;21732;-80
2022/03/04 10:58:03;;;;;;;;;;;;;;;1.97;97.46;98463.08;1666238;84;26004;-81
2022/03/04 11:00:30;;;;;;;;;;;;;;;2.03;97.62;98465.00;1651204;86;25235;-80
2022/03/04 11:02:57;;;;;;;;;;;;;;;1.96;97.61;98460.13;1660032;86;20261;-81
2022/03/04 11:05:27;;;;;;;;;;;;;;;1.97;97.67;98463.08;1661095;84;24773;-82
2022/03/04 11:07:57;;;;;;;;;;;;;;;2.01;97.78;98464.23;1671710;83;22708;-81
2022/03/04 11:10:28;;;;;;;;;;;;;;;2.07;97.95;98457.53;1655981;86;25986;-81
2022/03/04 11:12:55;;;;;;;;;;;;;;;2.16;98.14;98455.54;1653430;86;24121;-82
2022/03/04 11:15:23;;;;;;;;;;;;;;;2.20;98.31;98450.20;1650061;86;20518;-82
2022/03/04 11:17:49;;;;;;;;;;;;;;;2.28;98.46;98455.95;1655911;84;24874;-82
2022/03/04 11:20:16;;;;;;;;;;;;;;;2.33;98.59;98461.78;1658538;84;21982;-82
2022/03/04 11:22:43;;;;;;;;;;;;;;;2.37;98.73;98457.34;1649721;84;26080;-82
2022/03/04 11:25:12;;;;;;;;;;;;;;;2.41;98.84;98458.45;1661940;86;24651;-83
2022/03/04 11:27:40;;;;;;;;;;;;;;;2.45;98.95;98449.72;1656430;85;20238;-82
2022/03/04 11:30:25;;;;;;;;;;;;;;;2.53;99.16;98456.72;1657299;84;25620;-82
2022/03/04 11:32:53;;;;;;;;;;;;;;;2.58;99.26;98460.86;1653465;84;22058;-83
2022/03/04 11:35:35;;;;;;;;;;;;;;;2.55;99.29;98460.55;1607986;88;26745;-83
2022/03/04 11:38:01;;;;;;;;;;;;;;;2.47;99.18;98461.27;1640483;86;24503;-83
2022/03/04 11:40:38;;;;;;;;;;;;;;;2.55;99.26;98456.67;1640813;86;21038;-83
2022/03/04 11:43:06;;;;;;;;;;;;;;;2.59;99.32;98456.94;1641826;85;25437;-83
2022/03/04 11:45:32;;;;;;;;;;;;;;;2.63;99.39;98455.92;1639382;86;22007;-82
2022/03/04 11:48:03;;;;;;;;;;;;;;;2.63;99.36;98461.53;1638311;85;26091;-82
2022/03/04 11:50:31;;;;;;;;;;;;;;;2.68;99.42;98467.36;1629062;87;24560;-82
2022/03/04 11:53:19;;;;;;;;;;;;;;;2.73;99.52;98456.41;1636034;87;20495;-82
2022/03/04 11:56:03;;;;;;;;;;;;;;;2.66;99.47;98460.14;1626919;87;24882;-82
2022/03/04 11:58:29;;;;;;;;;;;;;;;2.55;99.27;98460.99;1622482;87;22264;-83
2022/03/04 12:00:57;;;;;;;;;;;;;;;2.33;98.93;98464.81;1625958;86;26013;-82
2022/03/04 12:03:23;;;;;;;;;;;;;;;2.21;98.69;98463.52;1618996;87;24483;-81
2022/03/04 12:05:50;;;;;;;;;;;;;;;2.17;98.61;98466.27;1623655;87;20481;-81
2022/03/04 12:08:16;;;;;;;;;;;;;;;2.22;98.63;98464.36;1624278;87;24850;-82
2022/03/04 12:10:47;;;;;;;;;;;;;;;2.19;98.67;98461.42;1623551;87;21963;-82
2022/03/04 12:13:18;;;;;;;;;;;;;;;2.24;98.81;98466.41;1608406;89;27069;-82
2022/03/04 12:15:45;;;;;;;;;;;;;;;2.29;99.05;98464.54;1662220;84;24487;-82
2022/03/04 12:18:17;;;;;;;;;;;;;;;2.36;99.30;98464.24;1671227;82;20329;-83
2022/03/04 12:20:45;;;;;;;;;;;;;;;2.40;99.53;98467.58;1628718;87;24843;-82
2022/03/04 12:23:14;;;;;;;;;;;;;;;2.45;99.84;98461.34;1638967;87;22802;-83
2022/03/04 12:25:54;;;;;;;;;;;;;;;2.38;100.00;98446.12;1633084;86;26013;-82
2022/03/04 12:28:25;;;;;;;;;;;;;;;2.51;100.00;98457.66;1629284;86;24414;-82
2022/03/04 12:31:03;;;;;;;;;;;;;;;2.56;100.00;98461.39;1627895;87;20398;-82
2022/03/04 12:33:30;;;;;;;;;;;;;;;2.65;100.00;98461.87;1631012;87;24954;-82
2022/03/04 12:35:57;;;;;;;;;;;;;;;2.73;100.00;98460.28;1632166;86;21835;-82
2022/03/04 12:38:24;;;;;;;;;;;;;;;2.85;100.00;98455.49;1634214;87;26075;-82
2022/03/04 12:40:54;;;;;;;;;;;;;;;2.93;100.00;98453.47;1630757;86;24543;-82
2022/03/04 12:43:20;;;;;;;;;;;;;;;2.93;100.00;98451.33;1629898;85;20264;-82
2022/03/04 12:45:46;;;;;;;;;;;;;;;2.95;100.00;98451.65;1629541;86;24754;-82
2022/03/04 12:48:12;;;;;;;;;;;;;;;2.95;100.00;98450.35;1634958;86;21957;-82
2022/03/04 12:50:38;;;;;;;;;;;;;;;3.02;100.00;98452.26;1631491;87;26117;-82
2022/03/04 12:53:21;;;;;;;;;;;;;;;2.99;100.00;98452.84;1635618;86;24494;-82
2022/03/04 12:55:50;;;;;;;;;;;;;;;3.08;100.00;98453.77;1637157;86;20590;-82